createdAt,value
2024-01-11T00:00:20.550Z,9.73
2024-01-11T00:03:05.741Z,10.73
2024-01-11T00:05:52.161Z,9.95
2024-01-11T00:08:37.912Z,10.50
2024-01-11T00:11:23.506Z,11.00
2024-01-11T00:14:09.000Z,10.95
2024-01-11T00:16:54.306Z,10.57
2024-01-11T00:19:39.849Z,9.05
2024-01-11T00:22:25.286Z,10.43
2024-01-11T00:25:10.767Z,9.85
2024-01-11T00:27:56.300Z,10.32
2024-01-11T00:30:41.819Z,9.57
2024-01-11T00:33:27.356Z,10.60
2024-01-11T00:36:20.044Z,10.35
2024-01-11T00:39:05.371Z,10.80
2024-01-11T00:41:54.962Z,10.85
2024-01-11T00:44:40.502Z,11.43
2024-01-11T00:47:26.435Z,11.75
2024-01-11T00:50:12.548Z,11.10
2024-01-11T00:52:58.322Z,12.05
2024-01-11T00:55:44.292Z,11.27
2024-01-11T00:58:29.884Z,12.02
2024-01-11T01:01:15.100Z,10.50
2024-01-11T01:04:00.518Z,11.85
2024-01-11T01:06:46.665Z,11.93
2024-01-11T01:09:32.017Z,11.52
2024-01-11T01:12:17.551Z,12.02
2024-01-11T01:15:03.175Z,11.48
2024-01-11T01:17:50.452Z,12.32
2024-01-11T01:20:36.183Z,12.10
2024-01-11T01:23:21.954Z,11.73
2024-01-11T01:26:08.276Z,11.45
2024-01-11T01:28:53.545Z,11.88
2024-01-11T01:31:39.871Z,11.60
2024-01-11T01:34:25.155Z,11.93
2024-01-11T01:37:10.752Z,12.63
2024-01-11T01:39:56.057Z,12.85
2024-01-11T01:42:46.012Z,12.98
2024-01-11T01:45:31.435Z,12.35
2024-01-11T01:48:17.232Z,12.20
2024-01-11T01:51:03.353Z,11.55
2024-01-11T01:53:49.783Z,12.02
2024-01-11T01:56:35.452Z,11.60
2024-01-11T01:59:22.226Z,10.75
2024-01-11T02:02:08.551Z,11.23
2024-01-11T02:04:54.480Z,11.27
2024-01-11T02:07:40.947Z,11.13
2024-01-11T02:10:26.382Z,12.55
2024-01-11T02:13:14.054Z,13.18
2024-01-11T02:15:59.610Z,12.27
2024-01-11T02:18:45.296Z,11.90
2024-01-11T02:21:33.885Z,11.77
2024-01-11T02:24:19.451Z,12.38
2024-01-11T02:27:05.946Z,12.55
2024-01-11T02:29:51.649Z,13.20
2024-01-11T02:32:37.254Z,13.73
2024-01-11T02:35:23.097Z,13.80
2024-01-11T02:38:09.006Z,13.63
2024-01-11T02:40:55.688Z,14.27
2024-01-11T02:43:40.883Z,13.32
2024-01-11T02:46:26.516Z,13.00
2024-01-11T02:49:12.038Z,13.80
2024-01-11T02:51:57.413Z,12.63
2024-01-11T02:54:42.849Z,14.27
2024-01-11T02:57:28.342Z,13.57
2024-01-11T03:00:14.261Z,14.48
2024-01-11T03:02:59.743Z,14.63
2024-01-11T03:05:45.286Z,13.23
2024-01-11T03:08:30.821Z,13.18
2024-01-11T03:11:17.734Z,12.00
2024-01-11T03:14:03.793Z,12.70
2024-01-11T03:16:49.634Z,13.23
2024-01-11T03:19:35.297Z,13.20
2024-01-11T03:22:20.722Z,12.82
2024-01-11T03:25:06.671Z,12.93
2024-01-11T03:27:52.274Z,13.88
2024-01-11T03:30:37.811Z,13.23
2024-01-11T03:33:23.391Z,14.27
2024-01-11T03:36:10.727Z,14.07
2024-01-11T03:38:56.091Z,15.35
2024-01-11T03:41:46.233Z,15.10
2024-01-11T03:44:32.429Z,16.13
2024-01-11T03:47:17.808Z,18.75
2024-01-11T03:50:04.630Z,17.90
2024-01-11T03:52:50.024Z,16.65
2024-01-11T03:55:35.503Z,17.95
2024-01-11T03:58:21.294Z,16.38
2024-01-11T04:01:08.385Z,16.15
2024-01-11T04:03:53.591Z,16.75
2024-01-11T04:06:39.524Z,19.00
2024-01-11T04:09:25.273Z,18.65
2024-01-11T04:12:11.043Z,18.98
2024-01-11T04:14:56.305Z,18.92
2024-01-11T04:17:42.066Z,19.73
2024-01-11T04:20:27.953Z,17.95
2024-01-11T04:23:13.241Z,19.42
2024-01-11T04:25:58.745Z,20.48
2024-01-11T04:28:48.959Z,20.40
2024-01-11T04:31:34.757Z,21.83
2024-01-11T04:34:20.021Z,21.27
2024-01-11T04:37:05.658Z,22.05
2024-01-11T04:39:51.205Z,22.65
2024-01-11T04:42:36.906Z,22.40
2024-01-11T04:45:22.834Z,22.02
2024-01-11T04:48:08.187Z,22.17
2024-01-11T04:50:53.716Z,22.00
2024-01-11T04:53:43.357Z,22.17
2024-01-11T04:56:30.734Z,23.50
2024-01-11T04:59:16.364Z,25.40
2024-01-11T05:02:01.891Z,23.00
2024-01-11T05:04:47.865Z,25.05
2024-01-11T05:07:33.152Z,23.80
2024-01-11T05:10:18.594Z,23.50
2024-01-11T05:13:04.410Z,24.05
2024-01-11T05:15:49.987Z,23.48
2024-01-11T05:18:35.766Z,24.55
2024-01-11T05:21:22.236Z,25.58
2024-01-11T05:24:10.975Z,24.30
2024-01-11T05:26:57.499Z,22.90
2024-01-11T05:29:43.027Z,25.00
2024-01-11T05:32:28.503Z,25.35
2024-01-11T05:35:15.014Z,25.13
2024-01-11T05:38:00.260Z,25.65
2024-01-11T05:40:45.670Z,26.48
2024-01-11T05:43:31.209Z,25.42
2024-01-11T05:46:16.786Z,23.42
2024-01-11T05:49:02.704Z,26.00
2024-01-11T05:51:48.482Z,24.42
2024-01-11T05:54:33.919Z,23.77
2024-01-11T05:57:19.579Z,23.70
2024-01-11T06:00:06.423Z,24.27
2024-01-11T06:02:51.769Z,21.88
2024-01-11T06:05:37.446Z,19.98
2024-01-11T06:08:22.916Z,19.23
2024-01-11T06:11:08.941Z,19.45
2024-01-11T06:13:55.480Z,20.85
2024-01-11T06:16:41.936Z,20.95
2024-01-11T06:19:27.467Z,19.25
2024-01-11T06:22:12.856Z,17.83
2024-01-11T06:25:00.274Z,17.10
2024-01-11T06:27:45.866Z,15.48
2024-01-11T06:30:31.078Z,14.82
2024-01-11T06:33:16.998Z,18.17
2024-01-11T06:36:02.433Z,20.40
2024-01-11T06:38:47.915Z,21.67
2024-01-11T06:41:33.431Z,26.77
2024-01-11T06:44:19.271Z,25.42
2024-01-11T06:47:06.691Z,27.80
2024-01-11T06:49:52.192Z,30.73
2024-01-11T06:52:37.470Z,29.80
2024-01-11T06:55:23.149Z,32.38
2024-01-11T06:58:08.576Z,32.22
2024-01-11T07:00:55.040Z,32.42
2024-01-11T07:03:40.860Z,30.50
2024-01-11T07:06:26.337Z,31.83
2024-01-11T07:09:12.160Z,30.27
2024-01-11T07:11:57.680Z,29.90
2024-01-11T07:14:44.068Z,28.67
2024-01-11T07:17:29.576Z,30.63
2024-01-11T07:20:17.336Z,29.98
2024-01-11T07:23:03.300Z,29.83
2024-01-11T07:25:48.845Z,30.45
2024-01-11T07:28:34.003Z,29.55
2024-01-11T07:31:19.678Z,31.23
2024-01-11T07:34:05.968Z,29.23
2024-01-11T07:36:53.521Z,31.20
2024-01-11T07:39:39.301Z,30.45
2024-01-11T07:42:25.586Z,31.27
2024-01-11T07:45:11.610Z,29.33
2024-01-11T07:47:57.690Z,26.33
2024-01-11T07:50:42.996Z,28.13
2024-01-11T07:53:28.585Z,25.95
2024-01-11T07:56:14.986Z,24.05
2024-01-11T07:59:00.503Z,21.17
2024-01-11T08:01:46.508Z,24.10
2024-01-11T08:04:31.988Z,27.45
2024-01-11T08:07:17.483Z,29.17
2024-01-11T08:10:05.032Z,30.40
2024-01-11T08:12:50.454Z,30.08
2024-01-11T08:15:35.964Z,33.78
2024-01-11T08:18:21.415Z,30.17
2024-01-11T08:21:10.653Z,30.52
2024-01-11T08:23:57.538Z,30.55
2024-01-11T08:26:45.893Z,30.38
2024-01-11T08:29:31.591Z,31.25
2024-01-11T08:32:28.172Z,30.63
2024-01-11T08:35:17.725Z,30.08
2024-01-11T08:38:04.355Z,31.52
2024-01-11T08:40:49.772Z,31.33
2024-01-11T08:43:35.255Z,31.05
2024-01-11T08:46:27.940Z,33.05
2024-01-11T08:49:13.804Z,29.23
2024-01-11T08:51:59.242Z,29.33
2024-01-11T08:54:44.630Z,30.67
2024-01-11T08:57:30.534Z,30.48
2024-01-11T09:00:19.129Z,31.00
2024-01-11T09:03:05.505Z,30.35
2024-01-11T09:05:51.823Z,30.20
2024-01-11T09:08:37.668Z,32.85
2024-01-11T09:11:23.366Z,30.40
2024-01-11T09:14:12.180Z,31.50
2024-01-11T09:16:57.621Z,31.02
2024-01-11T09:19:43.437Z,31.05
2024-01-11T09:22:29.331Z,32.38
2024-01-11T09:25:15.760Z,31.77
2024-01-11T09:28:01.080Z,29.85
2024-01-11T09:30:46.968Z,30.65
2024-01-11T09:33:32.639Z,30.98
2024-01-11T09:36:18.661Z,31.48
2024-01-11T09:39:04.251Z,29.83
2024-01-11T09:41:58.891Z,29.05
2024-01-11T09:44:45.368Z,26.83
2024-01-11T09:47:31.786Z,24.55
2024-01-11T09:50:19.088Z,24.73
2024-01-11T09:53:08.830Z,23.42
2024-01-11T09:55:56.503Z,23.63
2024-01-11T09:58:50.877Z,24.17
2024-01-11T10:01:36.639Z,23.27
2024-01-11T10:04:22.589Z,23.15
2024-01-11T10:07:09.318Z,22.90
2024-01-11T10:09:54.873Z,26.02
2024-01-11T10:12:40.485Z,24.67
2024-01-11T10:15:25.813Z,23.38
2024-01-11T10:18:11.997Z,23.45
2024-01-11T10:20:58.852Z,21.48
2024-01-11T10:23:44.432Z,20.40
2024-01-11T10:26:31.644Z,21.25
2024-01-11T10:29:19.216Z,21.40
2024-01-11T10:32:05.830Z,21.02
2024-01-11T10:34:50.880Z,20.58
2024-01-11T10:37:40.068Z,21.33
2024-01-11T10:40:26.767Z,22.25
2024-01-11T10:43:16.709Z,22.17
2024-01-11T10:46:05.412Z,19.98
2024-01-11T10:48:56.953Z,20.25
2024-01-11T10:51:46.115Z,20.25
2024-01-11T10:54:32.562Z,19.40
2024-01-11T10:57:19.159Z,19.23
2024-01-11T11:00:04.773Z,19.58
2024-01-11T11:02:52.208Z,18.15
2024-01-11T11:05:38.629Z,18.77
2024-01-11T11:08:26.067Z,18.10
2024-01-11T11:11:12.707Z,18.17
2024-01-11T11:14:03.701Z,18.80
2024-01-11T11:16:52.097Z,18.38
2024-01-11T11:19:38.261Z,19.20
2024-01-11T11:22:24.001Z,17.60
2024-01-11T11:25:25.857Z,16.92
2024-01-11T11:28:14.532Z,16.85
2024-01-11T11:31:04.016Z,16.95
2024-01-11T11:33:51.481Z,17.13
2024-01-11T11:36:37.519Z,17.95
2024-01-11T11:39:24.074Z,17.23
2024-01-11T11:42:11.218Z,17.00
2024-01-11T11:44:58.871Z,15.25
2024-01-11T11:47:47.163Z,15.18
2024-01-11T11:50:33.065Z,13.88
2024-01-11T11:53:20.065Z,14.85
2024-01-11T11:56:06.081Z,13.85
2024-01-11T11:58:53.901Z,14.30
2024-01-11T12:01:40.988Z,14.40
2024-01-11T12:04:26.601Z,13.35
2024-01-11T12:07:12.613Z,12.63
2024-01-11T12:09:58.012Z,11.75
2024-01-11T12:12:47.417Z,11.40
2024-01-11T12:15:32.811Z,10.75
2024-01-11T12:18:18.914Z,9.45
2024-01-11T12:21:05.197Z,8.83
2024-01-11T12:23:50.813Z,7.85
2024-01-11T12:26:36.662Z,8.20
2024-01-11T12:29:22.705Z,7.30
2024-01-11T12:32:12.134Z,6.97
2024-01-11T12:34:58.436Z,7.00
2024-01-11T12:37:56.672Z,6.97
2024-01-11T12:40:42.365Z,8.38
2024-01-11T12:43:27.710Z,7.57
2024-01-11T12:46:13.614Z,7.88
2024-01-11T12:48:59.307Z,7.85
2024-01-11T12:51:44.815Z,7.10
2024-01-11T12:54:34.646Z,7.47
2024-01-11T12:57:21.092Z,6.88
2024-01-11T13:00:14.747Z,7.05
2024-01-11T13:03:00.510Z,8.93
2024-01-11T13:05:46.082Z,9.82
2024-01-11T13:08:32.393Z,9.48
2024-01-11T13:11:19.046Z,9.10
2024-01-11T13:14:07.849Z,9.73
2024-01-11T13:16:53.799Z,9.63
2024-01-11T13:19:39.579Z,10.43
2024-01-11T13:22:26.230Z,10.35
2024-01-11T13:25:11.580Z,11.80
2024-01-11T13:27:57.088Z,12.57
2024-01-11T13:30:44.230Z,12.10
2024-01-11T13:33:29.837Z,11.85
2024-01-11T13:36:15.609Z,12.65
2024-01-11T13:39:01.652Z,13.35
2024-01-11T13:41:48.432Z,12.43
2024-01-11T13:44:34.170Z,12.13
2024-01-11T13:47:20.038Z,13.73
2024-01-11T13:50:06.037Z,14.55
2024-01-11T13:52:51.976Z,14.13
2024-01-11T13:55:41.316Z,13.38
2024-01-11T13:58:27.140Z,13.18
2024-01-11T14:01:14.736Z,12.82
2024-01-11T14:04:00.558Z,11.13
2024-01-11T14:06:46.061Z,12.32
2024-01-11T14:09:34.364Z,13.60
2024-01-11T14:12:20.088Z,13.32
2024-01-11T14:15:07.609Z,13.35
2024-01-11T14:17:53.708Z,13.60
2024-01-11T14:20:39.447Z,12.43
2024-01-11T14:23:25.137Z,14.48
2024-01-11T14:26:10.550Z,13.73
2024-01-11T14:28:56.161Z,15.80
2024-01-11T14:31:41.793Z,16.80
2024-01-11T14:34:28.805Z,18.27
2024-01-11T14:37:15.727Z,17.20
2024-01-11T14:40:01.878Z,15.95
2024-01-11T14:42:47.817Z,15.38
2024-01-11T14:45:33.128Z,14.98
2024-01-11T14:48:18.885Z,13.80
2024-01-11T14:51:05.837Z,14.13
2024-01-11T14:53:52.623Z,14.25
2024-01-11T14:56:38.287Z,15.90
2024-01-11T14:59:23.893Z,14.00
2024-01-11T15:02:10.695Z,13.95
2024-01-11T15:04:56.489Z,14.05
2024-01-11T15:07:42.041Z,14.02
2024-01-11T15:10:27.762Z,12.73
2024-01-11T15:13:13.170Z,14.70
2024-01-11T15:15:58.558Z,13.82
2024-01-11T15:18:44.208Z,14.00
2024-01-11T15:21:29.818Z,13.63
2024-01-11T15:24:16.445Z,14.30
2024-01-11T15:27:03.498Z,13.93
2024-01-11T15:29:49.239Z,13.00
2024-01-11T15:32:35.353Z,13.25
2024-01-11T15:35:20.932Z,14.02
2024-01-11T15:38:06.659Z,12.98
2024-01-11T15:40:52.072Z,12.85
2024-01-11T15:43:38.215Z,13.25
2024-01-11T15:46:23.787Z,14.70
2024-01-11T15:49:09.671Z,13.65
2024-01-11T15:51:55.213Z,14.23
2024-01-11T15:54:41.027Z,12.65
2024-01-11T15:57:26.456Z,13.40
2024-01-11T16:00:12.874Z,13.73
2024-01-11T16:02:58.728Z,12.07
2024-01-11T16:05:45.021Z,12.82
2024-01-11T16:08:30.833Z,12.45
2024-01-11T16:11:16.536Z,13.15
2024-01-11T16:14:01.942Z,12.70
2024-01-11T16:16:47.640Z,13.80
2024-01-11T16:19:35.077Z,13.32
2024-01-11T16:22:21.535Z,13.20
2024-01-11T16:25:07.127Z,13.05
2024-01-11T16:27:53.737Z,14.80
2024-01-11T16:30:39.778Z,16.20
2024-01-11T16:33:26.539Z,16.23
2024-01-11T16:36:12.223Z,16.13
2024-01-11T16:38:57.574Z,16.10
2024-01-11T16:41:43.634Z,16.80
2024-01-11T16:44:29.725Z,17.83
2024-01-11T16:47:16.274Z,17.15
2024-01-11T16:50:01.420Z,18.05
2024-01-11T16:52:47.111Z,18.52
2024-01-11T16:55:33.664Z,18.65
2024-01-11T16:58:19.346Z,19.70
2024-01-11T17:01:05.300Z,18.77
2024-01-11T17:03:50.907Z,17.08
2024-01-11T17:06:36.332Z,16.45
2024-01-11T17:09:21.835Z,16.02
2024-01-11T17:12:08.187Z,13.00
2024-01-11T17:14:57.494Z,14.65
2024-01-11T17:17:43.627Z,15.15
2024-01-11T17:20:29.324Z,13.75
2024-01-11T17:23:16.362Z,11.77
2024-01-11T17:26:04.669Z,13.68
2024-01-11T17:28:50.462Z,14.25
2024-01-11T17:31:38.313Z,12.77
2024-01-11T17:34:23.906Z,12.93
2024-01-11T17:37:12.564Z,13.82
2024-01-11T17:39:57.949Z,15.18
2024-01-11T17:42:43.665Z,15.55
2024-01-11T17:45:29.688Z,14.38
2024-01-11T17:48:16.045Z,15.30
2024-01-11T17:51:01.854Z,15.18
2024-01-11T17:53:53.696Z,15.75
2024-01-11T17:56:43.026Z,14.15
2024-01-11T17:59:28.513Z,15.45
2024-01-11T18:02:14.292Z,15.95
2024-01-11T18:05:01.338Z,14.82
2024-01-11T18:07:47.339Z,15.90
2024-01-11T18:10:40.225Z,14.52
2024-01-11T18:13:26.677Z,14.60
2024-01-11T18:16:12.073Z,15.52
2024-01-11T18:18:57.436Z,14.02
2024-01-11T18:21:43.099Z,14.73
2024-01-11T18:24:29.290Z,14.07
2024-01-11T18:27:15.204Z,14.85
2024-01-11T18:30:01.126Z,14.38
2024-01-11T18:32:47.500Z,14.05
2024-01-11T18:35:33.365Z,12.43
2024-01-11T18:38:19.937Z,14.05
2024-01-11T18:41:08.072Z,14.57
2024-01-11T18:43:54.134Z,12.77
2024-01-11T18:46:40.556Z,13.52
2024-01-11T18:49:26.247Z,12.85
2024-01-11T18:52:11.678Z,13.65
2024-01-11T18:55:05.282Z,12.15
2024-01-11T18:57:58.731Z,10.93
2024-01-11T19:00:46.184Z,11.73
2024-01-11T19:03:31.865Z,12.25
2024-01-11T19:06:17.653Z,11.65
2024-01-11T19:09:04.642Z,12.93
2024-01-11T19:11:51.711Z,11.82
2024-01-11T19:14:37.390Z,11.93
2024-01-11T19:17:23.132Z,11.25
2024-01-11T19:20:08.814Z,11.40
2024-01-11T19:22:54.514Z,12.35
2024-01-11T19:25:39.678Z,10.05
2024-01-11T19:28:25.718Z,9.70
2024-01-11T19:31:11.314Z,9.60
2024-01-11T19:33:56.916Z,10.05
2024-01-11T19:36:42.840Z,10.43
2024-01-11T19:39:28.468Z,11.43
2024-01-11T19:42:14.164Z,10.10
2024-01-11T19:44:59.673Z,9.13
2024-01-11T19:47:45.201Z,9.05
2024-01-11T19:50:33.799Z,7.95
2024-01-11T19:53:19.688Z,9.02
2024-01-11T19:56:19.491Z,7.60
2024-01-11T19:59:05.390Z,7.05
2024-01-11T20:01:52.269Z,6.72
2024-01-11T20:04:39.375Z,7.10
2024-01-11T20:07:25.130Z,7.82
2024-01-11T20:10:10.445Z,7.68
2024-01-11T20:12:56.094Z,6.53
2024-01-11T20:15:41.492Z,7.50
2024-01-11T20:18:28.918Z,5.65
2024-01-11T20:21:14.643Z,6.80
2024-01-11T20:24:00.570Z,6.30
2024-01-11T20:26:48.957Z,5.07
2024-01-11T20:29:34.598Z,6.10
2024-01-11T20:32:20.420Z,6.80
2024-01-11T20:35:06.477Z,6.65
2024-01-11T20:37:51.973Z,5.40
2024-01-11T20:40:37.229Z,7.90
2024-01-11T20:43:23.025Z,7.30
2024-01-11T20:46:08.677Z,6.78
2024-01-11T20:48:54.466Z,6.28
2024-01-11T20:51:43.912Z,6.60
2024-01-11T20:54:29.438Z,7.38
2024-01-11T20:57:15.151Z,6.22
2024-01-11T21:00:00.892Z,6.53
2024-01-11T21:02:47.000Z,6.00
2024-01-11T21:05:32.612Z,5.97
2024-01-11T21:08:18.169Z,5.15
2024-01-11T21:11:03.985Z,5.45
2024-01-11T21:13:50.412Z,5.53
2024-01-11T21:16:36.209Z,7.40
2024-01-11T21:19:21.793Z,6.93
2024-01-11T21:22:07.365Z,5.82
2024-01-11T21:24:54.258Z,5.72
2024-01-11T21:27:40.700Z,5.57
2024-01-11T21:30:26.045Z,5.55
2024-01-11T21:33:11.948Z,5.07
2024-01-11T21:35:57.414Z,5.18
2024-01-11T21:38:42.794Z,6.35
2024-01-11T21:41:28.814Z,6.18
2024-01-11T21:44:14.649Z,5.35
2024-01-11T21:46:59.977Z,7.22
2024-01-11T21:49:45.534Z,7.10
2024-01-11T21:52:31.097Z,6.28
2024-01-11T21:55:16.784Z,7.13
2024-01-11T21:58:02.010Z,5.85
2024-01-11T22:00:48.071Z,5.40
2024-01-11T22:03:38.784Z,4.63
2024-01-11T22:06:27.869Z,6.15
2024-01-11T22:09:13.673Z,4.82
2024-01-11T22:11:59.339Z,4.32
2024-01-11T22:14:44.747Z,4.63
2024-01-11T22:17:30.197Z,5.38
2024-01-11T22:20:15.869Z,4.88
2024-01-11T22:23:01.434Z,5.07
2024-01-11T22:25:47.106Z,4.88
2024-01-11T22:28:32.541Z,5.22
2024-01-11T22:31:18.608Z,5.40
2024-01-11T22:34:04.869Z,4.13
2024-01-11T22:36:50.555Z,4.45
2024-01-11T22:39:35.901Z,4.07
2024-01-11T22:42:21.795Z,4.28
2024-01-11T22:45:07.994Z,3.40
2024-01-11T22:47:53.604Z,3.78
2024-01-11T22:50:39.368Z,3.88
2024-01-11T22:53:24.953Z,3.88
2024-01-11T22:56:10.570Z,3.95
2024-01-11T22:58:56.015Z,3.40
2024-01-11T23:01:44.623Z,3.63
2024-01-11T23:04:34.472Z,3.42
2024-01-11T23:07:20.089Z,3.00
2024-01-11T23:10:06.096Z,3.08
2024-01-11T23:12:51.369Z,3.47
2024-01-11T23:15:38.215Z,3.72
2024-01-11T23:18:23.863Z,3.35
2024-01-11T23:21:10.132Z,3.15
2024-01-11T23:23:55.758Z,3.65
2024-01-11T23:26:41.319Z,3.30
2024-01-11T23:29:26.471Z,3.08
2024-01-11T23:32:12.160Z,2.88
2024-01-11T23:34:57.686Z,3.72
2024-01-11T23:37:43.408Z,3.75
2024-01-11T23:40:29.182Z,3.42
2024-01-11T23:43:14.529Z,2.92
2024-01-11T23:45:59.868Z,3.03
2024-01-11T23:48:48.045Z,3.03
2024-01-11T23:51:33.721Z,3.00
2024-01-11T23:54:19.485Z,2.90
2024-01-11T23:57:05.039Z,3.55
2024-01-11T23:59:50.685Z,2.97
